Terminal Aerodrome Forecast
Issued by NWS

Home | Current Version | Previous Version | Text Only | Print | Product List | Glossary On
Versions: 1 2 3 4 5 6 7 8 9 10 11 12 13 14 15 16
000
FTUS43 KGRB 021100
TAFAUW
TAF
KAUW 021126Z 0212/0312 28007KT P6SM SKC
     FM022200 16004KT P6SM BKN150
     FM030400 15006KT P6SM BKN080
     FM030900 13009KT P6SM -SN BKN035 OVC060
      TEMPO 0310/0312 3SM -SN OVC015=

USA.gov is the U.S. government's official web portal to all federal, state and local government web resources and services.